Jump to content

[27 Jun, 11-14z] Göteborg VFR Weekend


Max Kuhla (1157125)
 Share

Recommended Posts

Max Kuhla (1157125)

GBG.thumb.png.c5c2d72f6ccc131c0d9cd58e247c60fd.png

Do you like flying VFR? So do we!

We (Some swedish VFR enthusiasts) invite you to take your favourite aircraft for a spin around Göteborg, Where Sweden's second largest airport, Landvetter ESGG is located.

Top quality service will be offered at Landvetter ESGG, Säve ESGP and Trollhättan ESGT. Maybe visit uncontrolled Borås ESGE, Allingsås ESGI or Öresten ESGM. Among many others!

Experience the beautiful Swedish west coast, Feskekörka, low and slow, in Swedish, English!

 

Don't forget your charts, being especially important when flying VFR!

Free Aeronautical charts here (Direct link to chart)

Airport Charts

VFR-Guide (in swedish)

Swedish VFR Weather

Low Level Forecast

  • Like 3
Link to comment
Share on other sites

  • Martin Tornberg (1069087) pinned this topic
  • 2 weeks later...
Max Kuhla (1157125)

This is tomorrow!

Forecast looks good ceilingwise.

ESGG TAF:

261730Z 2618/2718 VRB02KT CAVOK PROB40 2712/2714 SCT050CB PROB40 2714/2717 TSRA BKN050CB=

VFR Prognos 12

  • Like 2
Link to comment
Share on other sites

  • Martin Tornberg (1069087) unpinned this topic
 Share

×
×
  • Create New...